createdAt,value
2023-03-05T00:03:01.114Z,97675.97
2023-03-05T00:06:04.026Z,97677.03
2023-03-05T00:09:08.368Z,97679.69
2023-03-05T00:12:10.562Z,97679.00
2023-03-05T00:15:12.905Z,97679.00
2023-03-05T00:18:14.789Z,97675.16
2023-03-05T00:21:34.729Z,97675.44
2023-03-05T00:24:39.010Z,97681.09
2023-03-05T00:27:42.976Z,97680.63
2023-03-05T00:30:45.015Z,97676.41
2023-03-05T00:33:47.104Z,97671.94
2023-03-05T00:36:51.756Z,97674.09
2023-03-05T00:39:54.749Z,97669.94
2023-03-05T00:42:56.629Z,97673.41
2023-03-05T00:45:58.572Z,97682.59
2023-03-05T00:49:00.640Z,97683.63
2023-03-05T00:52:06.533Z,97685.47
2023-03-05T00:55:08.685Z,97679.06
2023-03-05T00:58:10.657Z,97666.94
2023-03-05T01:01:12.709Z,97674.84
2023-03-05T01:04:15.870Z,97673.78
2023-03-05T01:07:17.800Z,97666.84
2023-03-05T01:10:20.464Z,97668.50
2023-03-05T01:13:22.358Z,97676.19
2023-03-05T01:16:24.364Z,97685.41
2023-03-05T01:19:26.287Z,97671.22
2023-03-05T01:22:28.891Z,97681.72
2023-03-05T01:25:30.833Z,97676.03
2023-03-05T01:28:38.332Z,97688.19
2023-03-05T01:31:40.463Z,97691.22
2023-03-05T01:34:47.319Z,97702.38
2023-03-05T01:37:49.513Z,97721.00
2023-03-05T01:40:51.532Z,97722.66
2023-03-05T01:43:53.488Z,97720.59
2023-03-05T01:46:56.199Z,97725.16
2023-03-05T01:50:04.546Z,97726.56
2023-03-05T01:53:07.709Z,97731.25
2023-03-05T01:56:11.004Z,97735.16
2023-03-05T01:59:14.198Z,97743.81
2023-03-05T02:02:17.111Z,97743.88
2023-03-05T02:05:18.914Z,97734.28
2023-03-05T02:08:22.593Z,97736.97
2023-03-05T02:11:30.581Z,97739.72
2023-03-05T02:14:33.735Z,97755.44
2023-03-05T02:17:35.632Z,97752.84
2023-03-05T02:20:51.204Z,97753.16
2023-03-05T02:23:53.267Z,97756.88
2023-03-05T02:26:55.965Z,97748.31
2023-03-05T02:29:57.902Z,97771.75
2023-03-05T02:33:00.100Z,97774.09
2023-03-05T02:36:03.744Z,97774.28
2023-03-05T02:39:06.419Z,97779.72
2023-03-05T02:42:09.403Z,97774.47
2023-03-05T02:45:13.200Z,97793.63
2023-03-05T02:48:15.490Z,97805.88
2023-03-05T02:51:18.311Z,97806.84
2023-03-05T02:54:21.778Z,97802.97
2023-03-05T02:57:23.888Z,97811.84
2023-03-05T03:00:26.518Z,97811.16
2023-03-05T03:03:28.472Z,97822.13
2023-03-05T03:06:30.427Z,97825.16
2023-03-05T03:09:36.225Z,97824.09
2023-03-05T03:12:42.728Z,97838.75
2023-03-05T03:15:44.623Z,97841.41
2023-03-05T03:18:48.943Z,97839.88
2023-03-05T03:21:51.062Z,97838.06
2023-03-05T03:24:53.444Z,97847.91
2023-03-05T03:27:57.472Z,97845.94
2023-03-05T03:31:01.910Z,97850.94
2023-03-05T03:34:04.970Z,97843.19
2023-03-05T03:37:06.886Z,97855.63
2023-03-05T03:40:12.834Z,97857.31
2023-03-05T03:43:14.742Z,97862.44
2023-03-05T03:46:16.738Z,97858.13
2023-03-05T03:49:24.486Z,97863.38
2023-03-05T03:52:26.702Z,97862.25
2023-03-05T03:55:30.931Z,97848.63
2023-03-05T03:58:33.104Z,97867.31
2023-03-05T04:01:35.112Z,97872.72
2023-03-05T04:04:37.158Z,97868.16
2023-03-05T04:07:39.106Z,97873.06
2023-03-05T04:10:43.319Z,97874.34
2023-03-05T04:13:49.177Z,97878.78
2023-03-05T04:16:51.080Z,97883.75
2023-03-05T04:19:52.987Z,97888.84
2023-03-05T04:22:54.983Z,97887.88
2023-03-05T04:25:57.008Z,97897.97
2023-03-05T04:28:58.933Z,97887.63
2023-03-05T04:32:01.162Z,97911.31
2023-03-05T04:35:03.630Z,97906.13
2023-03-05T04:38:05.527Z,97915.16
2023-03-05T04:41:07.464Z,97897.78
2023-03-05T04:44:09.332Z,97914.00
2023-03-05T04:47:13.564Z,97919.28
2023-03-05T04:50:15.501Z,97931.00
2023-03-05T04:53:17.395Z,97941.59
2023-03-05T04:56:19.348Z,97934.50
2023-03-05T04:59:21.421Z,97954.75
2023-03-05T05:02:23.311Z,97955.06
2023-03-05T05:05:27.032Z,97959.06
2023-03-05T05:08:29.364Z,97950.59
2023-03-05T05:11:31.331Z,97962.66
2023-03-05T05:14:34.449Z,97964.66
2023-03-05T05:17:36.323Z,97956.31
2023-03-05T05:20:39.108Z,97967.25
2023-03-05T05:23:40.984Z,97977.47
2023-03-05T05:26:42.882Z,97976.91
2023-03-05T05:29:46.471Z,97989.41
2023-03-05T05:32:50.790Z,97989.16
2023-03-05T05:35:52.965Z,97989.78
2023-03-05T05:38:54.880Z,98003.25
2023-03-05T05:41:56.812Z,98002.84
2023-03-05T05:44:59.758Z,98006.91
2023-03-05T05:48:01.755Z,98014.56
2023-03-05T05:51:09.290Z,98018.16
2023-03-05T05:54:15.812Z,98025.25
2023-03-05T05:57:17.852Z,98002.88
2023-03-05T06:00:20.268Z,98030.09
2023-03-05T06:03:22.471Z,98031.63
2023-03-05T06:06:26.221Z,98031.22
2023-03-05T06:09:28.080Z,98026.13
2023-03-05T06:12:29.957Z,98050.53
2023-03-05T06:15:31.884Z,98050.81
2023-03-05T06:18:34.667Z,98049.50
2023-03-05T06:21:39.301Z,98058.28
2023-03-05T06:24:41.230Z,98057.06
2023-03-05T06:27:43.221Z,98059.44
2023-03-05T06:30:45.981Z,98052.00
2023-03-05T06:33:49.236Z,98061.19
2023-03-05T06:36:51.130Z,98073.13
2023-03-05T06:39:55.803Z,98073.13
2023-03-05T06:42:57.754Z,98078.00
2023-03-05T06:46:13.787Z,98073.69
2023-03-05T06:49:15.712Z,98088.41
2023-03-05T06:52:17.642Z,98081.03
2023-03-05T06:55:19.681Z,98085.84
2023-03-05T06:58:22.074Z,98086.44
2023-03-05T07:01:24.205Z,98096.63
2023-03-05T07:04:26.194Z,98098.69
2023-03-05T07:07:28.063Z,98092.28
2023-03-05T07:10:30.732Z,98097.31
2023-03-05T07:13:32.728Z,98102.31
2023-03-05T07:16:35.038Z,98104.97
2023-03-05T07:19:39.351Z,98111.91
2023-03-05T07:22:41.213Z,98107.03
2023-03-05T07:25:43.307Z,98114.81
2023-03-05T07:28:45.274Z,98118.41
2023-03-05T07:31:51.211Z,98119.25
2023-03-05T07:34:53.083Z,98113.88
2023-03-05T07:37:55.945Z,98108.28
2023-03-05T07:41:01.878Z,98115.84
2023-03-05T07:44:03.844Z,98121.28
2023-03-05T07:47:06.839Z,98118.13
2023-03-05T07:50:09.019Z,98113.81
2023-03-05T07:53:11.336Z,98117.38
2023-03-05T07:56:13.803Z,98104.53
2023-03-05T07:59:15.640Z,98105.69
2023-03-05T08:02:20.163Z,98104.03
2023-03-05T08:05:22.047Z,98103.75
2023-03-05T08:08:24.248Z,98109.56
2023-03-05T08:11:26.802Z,98114.00
2023-03-05T08:14:29.064Z,98120.50
2023-03-05T08:17:30.921Z,98129.34
2023-03-05T08:20:35.651Z,98138.31
2023-03-05T08:23:37.530Z,98125.72
2023-03-05T08:26:43.193Z,98138.84
2023-03-05T08:29:45.088Z,98146.66
2023-03-05T08:32:55.618Z,98142.25
2023-03-05T08:35:57.607Z,98144.91
2023-03-05T08:39:00.998Z,98139.38
2023-03-05T08:42:03.911Z,98144.38
2023-03-05T08:45:06.430Z,98150.16
2023-03-05T08:48:08.444Z,98147.34
2023-03-05T08:51:17.252Z,98149.69
2023-03-05T08:54:19.159Z,98159.44
2023-03-05T08:57:21.091Z,98169.97
2023-03-05T09:00:25.217Z,98167.78
2023-03-05T09:03:27.426Z,98172.16
2023-03-05T09:06:29.500Z,98179.97
2023-03-05T09:09:33.078Z,98180.25
2023-03-05T09:12:34.934Z,98186.94
2023-03-05T09:15:37.675Z,98184.69
2023-03-05T09:18:40.721Z,98195.25
2023-03-05T09:21:42.642Z,98196.53
2023-03-05T09:24:44.837Z,98191.22
2023-03-05T09:27:46.950Z,98189.72
2023-03-05T09:30:48.957Z,98199.44
2023-03-05T09:33:50.986Z,98200.53
2023-03-05T09:36:52.883Z,98201.25
2023-03-05T09:39:56.067Z,98193.75
2023-03-05T09:43:03.512Z,98199.31
2023-03-05T09:46:26.481Z,98190.28
2023-03-05T09:49:59.337Z,98203.31
2023-03-05T09:53:22.996Z,98202.34
2023-03-05T09:56:47.564Z,98205.38
2023-03-05T09:59:59.778Z,98205.06
2023-03-05T10:03:06.944Z,98203.59
2023-03-05T10:06:29.189Z,98193.81
2023-03-05T10:10:01.343Z,98206.53
2023-03-05T10:13:15.189Z,98200.47
2023-03-05T10:16:29.216Z,98203.53
2023-03-05T10:20:08.905Z,98199.09
2023-03-05T10:23:13.464Z,98201.44
2023-03-05T10:26:25.283Z,98205.38
2023-03-05T10:29:55.244Z,98200.19
2023-03-05T10:33:21.827Z,98197.09
2023-03-05T10:37:12.111Z,98191.25
2023-03-05T10:40:44.986Z,98196.41
2023-03-05T10:43:50.693Z,98194.63
2023-03-05T10:46:56.091Z,98196.13
2023-03-05T10:49:59.368Z,98203.09
2023-03-05T10:53:15.680Z,98203.59
2023-03-05T10:56:21.270Z,98202.91
2023-03-05T10:59:23.196Z,98204.47
2023-03-05T11:02:25.328Z,98200.00
2023-03-05T11:05:39.407Z,98210.72
2023-03-05T11:08:42.083Z,98213.56
2023-03-05T11:12:10.951Z,98218.63
2023-03-05T11:15:12.739Z,98220.25
2023-03-05T11:18:21.496Z,98215.22
2023-03-05T11:21:28.574Z,98211.59
2023-03-05T11:24:30.493Z,98216.88
2023-03-05T11:27:36.928Z,98216.72
2023-03-05T11:30:40.268Z,98215.34
2023-03-05T11:33:56.621Z,98212.41
2023-03-05T11:37:03.946Z,98216.47
2023-03-05T11:40:25.478Z,98212.94
2023-03-05T11:43:30.207Z,98221.97
2023-03-05T11:46:40.538Z,98220.38
2023-03-05T11:49:46.497Z,98224.56
2023-03-05T11:52:57.650Z,98224.75
2023-03-05T11:56:49.967Z,98236.72
2023-03-05T11:59:56.399Z,98233.63
2023-03-05T12:03:05.195Z,98233.03
2023-03-05T12:06:12.902Z,98241.53
2023-03-05T12:09:47.923Z,98245.03
2023-03-05T12:13:17.419Z,98246.03
2023-03-05T12:16:30.925Z,98235.47
2023-03-05T12:19:41.584Z,98250.91
2023-03-05T12:22:46.787Z,98255.78
2023-03-05T12:25:57.917Z,98255.22
2023-03-05T12:28:59.836Z,98248.81
2023-03-05T12:32:02.393Z,98256.63
2023-03-05T12:35:24.882Z,98261.06
2023-03-05T12:38:32.566Z,98254.13
2023-03-05T12:41:34.850Z,98256.63
2023-03-05T12:44:39.969Z,98264.69
2023-03-05T12:47:42.594Z,98258.84
2023-03-05T12:50:45.127Z,98265.81
2023-03-05T12:53:51.505Z,98268.03
2023-03-05T12:56:56.285Z,98262.47
2023-03-05T13:00:21.518Z,98272.19
2023-03-05T13:03:34.174Z,98265.09
2023-03-05T13:06:38.245Z,98262.75
2023-03-05T13:09:40.098Z,98260.66
2023-03-05T13:12:53.958Z,98268.59
2023-03-05T13:15:57.080Z,98270.09
2023-03-05T13:19:03.412Z,98267.47
2023-03-05T13:22:11.700Z,98260.66
2023-03-05T13:25:22.388Z,98270.38
2023-03-05T13:28:24.799Z,98267.44
2023-03-05T13:31:26.868Z,98261.63
2023-03-05T13:34:44.596Z,98276.50
2023-03-05T13:37:49.600Z,98263.56
2023-03-05T13:41:15.919Z,98268.81
2023-03-05T13:44:22.205Z,98268.00
2023-03-05T13:47:28.607Z,98265.31
2023-03-05T13:50:39.560Z,98275.78
2023-03-05T13:53:41.759Z,98267.16
2023-03-05T13:57:29.894Z,98274.09
2023-03-05T14:00:37.450Z,98273.94
2023-03-05T14:03:39.382Z,98266.00
2023-03-05T14:06:48.250Z,98270.88
2023-03-05T14:09:52.328Z,98271.03
2023-03-05T14:12:54.982Z,98271.03
2023-03-05T14:16:11.414Z,98275.75
2023-03-05T14:19:38.172Z,98273.38
2023-03-05T14:22:45.556Z,98268.75
2023-03-05T14:25:47.696Z,98276.44
2023-03-05T14:29:09.502Z,98276.44
2023-03-05T14:32:31.766Z,98274.78
2023-03-05T14:35:34.352Z,98271.16
2023-03-05T14:38:40.753Z,98270.59
2023-03-05T14:41:42.731Z,98269.91
2023-03-05T14:44:44.786Z,98274.50
2023-03-05T14:47:47.037Z,98281.88
2023-03-05T14:50:57.052Z,98277.25
2023-03-05T14:54:01.592Z,98271.41
2023-03-05T14:57:05.710Z,98283.06
2023-03-05T15:00:25.274Z,98287.53
2023-03-05T15:03:29.356Z,98287.09
2023-03-05T15:06:38.151Z,98274.75
2023-03-05T15:09:40.106Z,98289.03
2023-03-05T15:12:42.521Z,98286.81
2023-03-05T15:15:46.167Z,98289.88
2023-03-05T15:18:48.933Z,98293.47
2023-03-05T15:21:50.870Z,98289.03
2023-03-05T15:24:52.841Z,98289.03
2023-03-05T15:27:58.543Z,98293.63
2023-03-05T15:31:00.840Z,98292.50
2023-03-05T15:34:02.774Z,98302.78
2023-03-05T15:37:05.033Z,98308.63
2023-03-05T15:40:07.458Z,98314.59
2023-03-05T15:43:09.519Z,98310.13
2023-03-05T15:46:11.594Z,98316.41
2023-03-05T15:49:14.462Z,98316.97
2023-03-05T15:52:16.391Z,98318.34
2023-03-05T15:55:18.608Z,98330.31
2023-03-05T15:58:21.229Z,98331.53
2023-03-05T16:01:23.672Z,98333.34
2023-03-05T16:04:25.736Z,98334.88
2023-03-05T16:07:28.522Z,98335.97
2023-03-05T16:10:31.576Z,98337.22
2023-03-05T16:13:34.666Z,98352.91
2023-03-05T16:16:36.609Z,98342.94
2023-03-05T16:19:42.389Z,98349.16
2023-03-05T16:22:44.679Z,98354.00
2023-03-05T16:25:46.579Z,98345.44
2023-03-05T16:28:48.512Z,98345.69
2023-03-05T16:31:50.497Z,98346.13
2023-03-05T16:34:52.553Z,98341.97
2023-03-05T16:37:54.438Z,98336.81
2023-03-05T16:41:07.785Z,98337.66
2023-03-05T16:44:11.039Z,98335.00
2023-03-05T16:47:12.947Z,98336.94
2023-03-05T16:50:14.909Z,98340.94
2023-03-05T16:53:16.873Z,98327.31
2023-03-05T16:56:19.138Z,98318.25
2023-03-05T16:59:23.996Z,98316.59
2023-03-05T17:02:28.022Z,98318.91
2023-03-05T17:05:30.112Z,98317.06
2023-03-05T17:08:34.528Z,98317.59
2023-03-05T17:11:36.492Z,98330.59
2023-03-05T17:14:42.611Z,98329.50
2023-03-05T17:17:47.563Z,98321.13
2023-03-05T17:20:51.920Z,98326.41
2023-03-05T17:23:54.657Z,98324.28
2023-03-05T17:26:56.496Z,98323.72
2023-03-05T17:30:00.798Z,98318.97
2023-03-05T17:33:04.514Z,98334.66
2023-03-05T17:36:06.789Z,98331.44
2023-03-05T17:39:08.939Z,98333.50
2023-03-05T17:42:13.141Z,98327.38
2023-03-05T17:45:16.000Z,98331.81
2023-03-05T17:48:17.947Z,98335.16
2023-03-05T17:51:21.485Z,98341.97
2023-03-05T17:54:23.363Z,98333.94
2023-03-05T17:57:25.345Z,98337.41
2023-03-05T18:00:29.809Z,98334.53
2023-03-05T18:03:31.817Z,98338.81
2023-03-05T18:06:33.769Z,98343.00
2023-03-05T18:09:38.540Z,98347.31
2023-03-05T18:12:41.004Z,98354.13
2023-03-05T18:15:49.483Z,98351.38
2023-03-05T18:18:52.172Z,98356.63
2023-03-05T18:21:56.360Z,98360.94
2023-03-05T18:24:58.497Z,98361.91
2023-03-05T18:28:02.624Z,98352.34
2023-03-05T18:31:14.559Z,98348.59
2023-03-05T18:34:17.692Z,98345.00
2023-03-05T18:37:19.438Z,98353.16
2023-03-05T18:40:23.742Z,98353.75
2023-03-05T18:43:25.779Z,98353.63
2023-03-05T18:46:27.865Z,98356.50
2023-03-05T18:49:30.640Z,98357.09
2023-03-05T18:52:32.580Z,98351.38
2023-03-05T18:55:34.496Z,98351.25
2023-03-05T18:58:37.220Z,98357.47
2023-03-05T19:01:42.033Z,98344.16
2023-03-05T19:04:44.509Z,98357.78
2023-03-05T19:07:47.135Z,98353.63
2023-03-05T19:10:49.188Z,98340.31
2023-03-05T19:13:51.882Z,98351.69
2023-03-05T19:16:53.823Z,98349.88
2023-03-05T19:19:58.968Z,98353.75
2023-03-05T19:23:00.895Z,98355.41
2023-03-05T19:26:03.500Z,98356.84
2023-03-05T19:29:06.299Z,98363.91
2023-03-05T19:32:11.519Z,98355.03
2023-03-05T19:35:17.362Z,98355.41
2023-03-05T19:38:24.875Z,98357.78
2023-03-05T19:41:27.780Z,98359.09
2023-03-05T19:44:30.461Z,98362.81
2023-03-05T19:47:32.364Z,98367.13
2023-03-05T19:50:34.664Z,98367.38
2023-03-05T19:53:39.388Z,98355.88
2023-03-05T19:56:42.644Z,98367.00
2023-03-05T19:59:46.203Z,98354.91
2023-03-05T20:02:48.812Z,98358.13
2023-03-05T20:05:54.918Z,98354.50
2023-03-05T20:08:57.800Z,98360.75
2023-03-05T20:12:02.791Z,98350.59
2023-03-05T20:15:08.084Z,98348.66
2023-03-05T20:18:10.120Z,98355.41
2023-03-05T20:21:16.044Z,98346.66
2023-03-05T20:24:20.844Z,98352.53
2023-03-05T20:27:22.738Z,98347.94
2023-03-05T20:30:24.816Z,98353.63
2023-03-05T20:33:28.414Z,98346.16
2023-03-05T20:36:30.428Z,98347.50
2023-03-05T20:39:32.330Z,98349.88
2023-03-05T20:42:34.628Z,98343.66
2023-03-05T20:46:03.474Z,98332.25
2023-03-05T20:49:05.514Z,98338.63
2023-03-05T20:52:07.462Z,98327.91
2023-03-05T20:55:10.262Z,98331.75
2023-03-05T20:58:13.454Z,98334.53
2023-03-05T21:01:17.141Z,98333.81
2023-03-05T21:04:19.026Z,98323.25
2023-03-05T21:07:21.029Z,98326.75
2023-03-05T21:10:27.285Z,98318.81
2023-03-05T21:13:30.938Z,98307.56
2023-03-05T21:16:32.885Z,98314.06
2023-03-05T21:19:37.477Z,98320.56
2023-03-05T21:22:40.550Z,98311.81
2023-03-05T21:25:43.645Z,98314.72
2023-03-05T21:28:46.377Z,98313.28
2023-03-05T21:31:51.525Z,98313.03
2023-03-05T21:34:53.584Z,98312.06
2023-03-05T21:37:55.621Z,98305.25
2023-03-05T21:40:58.651Z,98313.28
2023-03-05T21:44:04.084Z,98307.56
2023-03-05T21:47:07.270Z,98309.50
2023-03-05T21:50:14.788Z,98309.03
2023-03-05T21:53:20.811Z,98318.03
2023-03-05T21:56:26.211Z,98309.56
2023-03-05T21:59:28.224Z,98312.56
2023-03-05T22:02:30.065Z,98309.47
2023-03-05T22:05:33.059Z,98304.50
2023-03-05T22:08:34.790Z,98301.53
2023-03-05T22:11:40.813Z,98300.81
2023-03-05T22:14:42.749Z,98302.16
2023-03-05T22:17:44.643Z,98301.69
2023-03-05T22:20:56.944Z,98296.69
2023-03-05T22:23:59.097Z,98298.03
2023-03-05T22:27:02.068Z,98300.31
2023-03-05T22:30:04.205Z,98302.03
2023-03-05T22:33:06.152Z,98296.03
2023-03-05T22:36:10.997Z,98301.34
2023-03-05T22:39:12.902Z,98298.34
2023-03-05T22:42:14.880Z,98304.56
2023-03-05T22:45:18.137Z,98302.19
2023-03-05T22:48:20.041Z,98310.31
2023-03-05T22:51:22.111Z,98304.59
2023-03-05T22:54:23.989Z,98306.88
2023-03-05T22:57:28.431Z,98308.19
2023-03-05T23:00:30.254Z,98307.59
2023-03-05T23:03:32.234Z,98300.06
2023-03-05T23:06:36.307Z,98301.38
2023-03-05T23:09:38.275Z,98291.94
2023-03-05T23:12:44.633Z,98296.00
2023-03-05T23:15:46.581Z,98287.66
2023-03-05T23:18:48.554Z,98289.56
2023-03-05T23:21:51.743Z,98291.47
2023-03-05T23:24:53.806Z,98293.50
2023-03-05T23:27:58.127Z,98286.69
2023-03-05T23:31:00.110Z,98285.97
2023-03-05T23:34:01.956Z,98282.97
2023-03-05T23:37:03.853Z,98279.41
2023-03-05T23:40:09.681Z,98280.94
2023-03-05T23:43:15.310Z,98276.53
2023-03-05T23:46:17.344Z,98279.28
2023-03-05T23:49:19.319Z,98276.88
2023-03-05T23:52:21.199Z,98273.41
2023-03-05T23:55:29.230Z,98275.44
2023-03-05T23:58:31.313Z,98272.81
